Time;durP1;ratioP1;P1;durP2;ratioP2;P2;SDS_P1;SDS_P2;PMS_P1;PMS_P2;Temp;Humidity;BMP_temperature;BMP_pressure;BME280_temperature;BME280_humidity;BME280_pressure;Samples;Min_cycle;Max_cycle;Signal;HPM_P1;HPM_P2
2021/09/28 00:01:41;;;;;;;;;;;15.40;91.60;;;;;;4299857;33;45287;-79
2021/09/28 00:04:08;;;;;;;;;;;15.40;91.60;;;;;;4302041;33;43113;-79
2021/09/28 00:06:38;;;;;;;;;;;15.40;91.70;;;;;;4300390;33;44127;-79
2021/09/28 00:09:05;;;;;;;;;;;15.30;91.70;;;;;;4301226;33;20440;-79
2021/09/28 00:11:33;;;;;;;;;;;15.30;91.70;;;;;;4301547;33;43469;-79
2021/09/28 00:14:00;;;;;;;;;;;15.30;91.80;;;;;;4301131;33;43475;-79
2021/09/28 00:16:28;;;;;;;;;;;15.30;91.70;;;;;;4301673;33;43066;-79
2021/09/28 00:18:55;;;;;;;;;;;15.30;91.80;;;;;;4301021;33;43185;-78
2021/09/28 00:21:22;;;;;;;;;;;15.20;91.70;;;;;;4299948;33;42959;-78
2021/09/28 00:23:49;;;;;;;;;;;15.20;91.70;;;;;;4288626;33;43780;-78
2021/09/28 00:26:16;;;;;;;;;;;15.20;91.70;;;;;;4300154;33;42861;-79
2021/09/28 00:28:44;;;;;;;;;;;15.20;91.70;;;;;;4301546;33;44942;-79
2021/09/28 00:31:11;;;;;;;;;;;15.20;91.70;;;;;;4300063;33;43183;-79
2021/09/28 00:33:38;;;;;;;;;;;15.30;91.60;;;;;;4300186;33;43738;-79
2021/09/28 00:36:05;;;;;;;;;;;15.30;91.60;;;;;;4300957;33;44220;-79
2021/09/28 00:38:32;;;;;;;;;;;15.30;91.50;;;;;;4303944;33;43882;-79
2021/09/28 00:41:02;;;;;;;;;;;15.40;91.50;;;;;;4304067;33;43275;-79
2021/09/28 00:43:44;;;;;;;;;;;15.30;91.40;;;;;;4304049;33;44111;-79
2021/09/28 00:46:11;;;;;;;;;;;15.30;91.40;;;;;;4303140;33;43167;-79
2021/09/28 00:48:39;;;;;;;;;;;15.30;91.30;;;;;;4303183;33;43997;-79
2021/09/28 00:51:07;;;;;;;;;;;15.30;91.30;;;;;;4302689;33;44359;-79
2021/09/28 00:53:38;;;;;;;;;;;15.30;91.30;;;;;;4303831;33;42498;-79
2021/09/28 00:56:09;;;;;;;;;;;15.30;91.30;;;;;;4303773;33;44061;-79
2021/09/28 00:58:37;;;;;;;;;;;15.30;91.30;;;;;;4304226;33;43289;-79
2021/09/28 01:01:05;;;;;;;;;;;15.30;91.30;;;;;;4304187;33;43206;-79
2021/09/28 01:03:33;;;;;;;;;;;15.30;91.30;;;;;;4303377;33;44050;-79
2021/09/28 01:06:01;;;;;;;;;;;15.20;91.30;;;;;;4303568;33;43326;-79
2021/09/28 01:08:28;;;;;;;;;;;15.20;91.30;;;;;;4302896;33;45053;-78
2021/09/28 01:10:56;;;;;;;;;;;15.20;91.30;;;;;;4303954;33;43351;-79
2021/09/28 01:13:24;;;;;;;;;;;15.20;91.30;;;;;;4302859;33;43091;-79
2021/09/28 01:16:00;;;;;;;;;;;15.20;91.30;;;;;;4303386;33;43849;-78
2021/09/28 01:18:31;;;;;;;;;;;15.20;91.30;;;;;;4303453;33;44304;-79
2021/09/28 01:20:59;;;;;;;;;;;15.20;91.30;;;;;;4304171;33;43894;-79
2021/09/28 01:23:26;;;;;;;;;;;15.20;91.30;;;;;;4303426;33;43234;-78
2021/09/28 01:25:53;;;;;;;;;;;15.10;91.30;;;;;;4290381;33;43467;-79
2021/09/28 01:28:20;;;;;;;;;;;15.10;91.40;;;;;;4302244;33;43242;-79
2021/09/28 01:30:50;;;;;;;;;;;15.00;91.40;;;;;;4290216;33;43540;-79
2021/09/28 01:33:18;;;;;;;;;;;15.00;91.40;;;;;;4302346;33;42775;-78
2021/09/28 01:35:45;;;;;;;;;;;15.00;91.40;;;;;;4302267;33;42982;-78
2021/09/28 01:38:14;;;;;;;;;;;15.00;91.40;;;;;;4303392;33;44959;-78
2021/09/28 01:40:42;;;;;;;;;;;15.00;91.50;;;;;;4303459;33;43187;-78
2021/09/28 01:43:10;;;;;;;;;;;15.00;91.50;;;;;;4303045;33;42767;-78
2021/09/28 01:45:38;;;;;;;;;;;14.90;91.50;;;;;;4302219;33;42674;-79
2021/09/28 01:48:06;;;;;;;;;;;14.90;91.60;;;;;;4303081;33;43635;-78
2021/09/28 01:50:33;;;;;;;;;;;14.90;91.60;;;;;;4302388;33;43409;-79
2021/09/28 01:53:00;;;;;;;;;;;14.90;91.60;;;;;;4302946;33;42398;-79
2021/09/28 01:55:27;;;;;;;;;;;14.80;91.60;;;;;;4303337;33;43120;-79
2021/09/28 01:57:58;;;;;;;;;;;14.80;91.60;;;;;;4302223;33;45535;-79
2021/09/28 02:00:26;;;;;;;;;;;14.80;91.60;;;;;;4303229;33;43776;-79
2021/09/28 02:02:53;;;;;;;;;;;14.80;91.60;;;;;;4302696;33;43410;-79
2021/09/28 02:05:21;;;;;;;;;;;14.80;91.70;;;;;;4302203;33;43932;-79
2021/09/28 02:07:48;;;;;;;;;;;14.80;91.70;;;;;;4301803;33;43851;-79
2021/09/28 02:10:15;;;;;;;;;;;14.70;91.70;;;;;;4303097;33;42287;-79
2021/09/28 02:12:45;;;;;;;;;;;14.70;91.70;;;;;;4302684;33;45708;-80
2021/09/28 02:15:14;;;;;;;;;;;14.70;91.80;;;;;;4303085;33;44955;-79
2021/09/28 02:17:43;;;;;;;;;;;14.60;91.80;;;;;;4302800;33;45541;-79
2021/09/28 02:20:11;;;;;;;;;;;14.60;91.90;;;;;;4302582;33;42673;-79
2021/09/28 02:22:40;;;;;;;;;;;14.60;91.90;;;;;;4302875;33;43678;-78
2021/09/28 02:25:08;;;;;;;;;;;14.60;91.90;;;;;;4301553;33;42856;-78
2021/09/28 02:27:36;;;;;;;;;;;14.60;91.90;;;;;;4302645;33;44228;-78
2021/09/28 02:30:03;;;;;;;;;;;14.60;91.80;;;;;;4302547;33;43038;-78
2021/09/28 02:32:30;;;;;;;;;;;14.60;91.80;;;;;;4302511;33;43895;-78
2021/09/28 02:34:58;;;;;;;;;;;14.70;91.80;;;;;;4302499;33;42997;-79
2021/09/28 02:37:25;;;;;;;;;;;14.70;91.80;;;;;;4302716;33;42937;-78
2021/09/28 02:39:52;;;;;;;;;;;14.70;91.80;;;;;;4302370;33;44107;-78
2021/09/28 02:42:19;;;;;;;;;;;14.60;91.80;;;;;;4301492;33;43283;-79
2021/09/28 02:44:51;;;;;;;;;;;14.60;91.80;;;;;;4301413;33;42664;-79
2021/09/28 02:47:19;;;;;;;;;;;14.70;91.80;;;;;;4302755;33;45782;-79
2021/09/28 02:49:46;;;;;;;;;;;14.60;91.70;;;;;;4302469;33;44655;-79
2021/09/28 02:52:16;;;;;;;;;;;14.70;91.70;;;;;;4302385;33;44099;-80
2021/09/28 02:54:43;;;;;;;;;;;14.60;91.60;;;;;;4301165;33;43382;-79
2021/09/28 02:57:10;;;;;;;;;;;14.60;91.60;;;;;;4302301;33;42558;-79
2021/09/28 02:59:37;;;;;;;;;;;14.60;91.60;;;;;;4300997;33;42448;-78
2021/09/28 03:02:05;;;;;;;;;;;14.60;91.60;;;;;;4300876;33;43527;-79
2021/09/28 03:04:32;;;;;;;;;;;14.60;91.70;;;;;;4300837;33;43014;-80
2021/09/28 03:06:59;;;;;;;;;;;14.60;91.70;;;;;;4300884;33;43082;-80
2021/09/28 03:09:26;;;;;;;;;;;14.60;91.70;;;;;;4302206;33;43500;-80
2021/09/28 03:11:56;;;;;;;;;;;14.60;91.70;;;;;;4301062;33;43500;-79
2021/09/28 03:14:23;;;;;;;;;;;14.60;91.70;;;;;;4302404;33;44285;-79
2021/09/28 03:16:51;;;;;;;;;;;14.50;91.70;;;;;;4302271;33;43319;-79
2021/09/28 03:19:20;;;;;;;;;;;14.50;91.70;;;;;;4301719;33;43340;-79
2021/09/28 03:21:47;;;;;;;;;;;14.50;91.70;;;;;;4302048;33;42579;-79
2021/09/28 03:24:15;;;;;;;;;;;14.50;91.70;;;;;;4301740;33;43498;-80
2021/09/28 03:26:42;;;;;;;;;;;14.50;91.70;;;;;;4302219;33;43867;-79
2021/09/28 03:29:11;;;;;;;;;;;14.50;91.70;;;;;;4301694;33;42915;-79
2021/09/28 03:31:38;;;;;;;;;;;14.50;91.70;;;;;;4302073;33;43176;-79
2021/09/28 03:34:08;;;;;;;;;;;14.50;91.60;;;;;;4301504;33;45799;-79
2021/09/28 03:36:35;;;;;;;;;;;14.50;92.00;;;;;;4301517;33;43490;-80
2021/09/28 03:39:03;;;;;;;;;;;14.50;91.60;;;;;;4302117;33;43950;-79
2021/09/28 03:41:30;;;;;;;;;;;14.50;91.60;;;;;;4300352;33;44737;-79
2021/09/28 03:43:57;;;;;;;;;;;14.50;91.70;;;;;;4301779;33;44086;-79
2021/09/28 03:46:24;;;;;;;;;;;14.40;91.70;;;;;;4300764;33;45001;-79
2021/09/28 03:48:51;;;;;;;;;;;14.40;91.70;;;;;;4301410;33;42599;-79
2021/09/28 03:51:18;;;;;;;;;;;14.30;91.70;;;;;;4300180;33;43466;-79
2021/09/28 03:53:45;;;;;;;;;;;14.40;91.70;;;;;;4301461;33;43489;-79
2021/09/28 03:56:15;;;;;;;;;;;14.40;91.70;;;;;;4301746;33;43912;-79
2021/09/28 03:58:42;;;;;;;;;;;14.40;91.60;;;;;;4300175;33;43213;-79
2021/09/28 04:01:09;;;;;;;;;;;14.40;91.60;;;;;;4288720;33;43907;-79
2021/09/28 04:03:39;;;;;;;;;;;14.30;91.60;;;;;;4301686;33;43439;-79
2021/09/28 04:06:07;;;;;;;;;;;14.30;91.60;;;;;;4301142;33;42951;-79
2021/09/28 04:08:34;;;;;;;;;;;14.30;91.70;;;;;;4300154;33;44140;-79
2021/09/28 04:11:04;;;;;;;;;;;14.30;91.70;;;;;;4300201;33;43880;-80
2021/09/28 04:13:31;;;;;;;;;;;14.30;91.60;;;;;;4300708;33;43351;-79
2021/09/28 04:16:00;;;;;;;;;;;14.30;91.60;;;;;;4301129;33;44074;-80
2021/09/28 04:18:27;;;;;;;;;;;14.30;91.60;;;;;;4299953;33;44623;-80
2021/09/28 04:20:55;;;;;;;;;;;14.30;91.60;;;;;;4288451;33;43376;-79
2021/09/28 04:23:23;;;;;;;;;;;14.30;91.60;;;;;;4288268;33;45779;-79
2021/09/28 04:25:50;;;;;;;;;;;14.30;91.60;;;;;;4299934;33;43666;-80
2021/09/28 04:28:17;;;;;;;;;;;14.20;91.60;;;;;;4301393;33;44126;-79
2021/09/28 04:30:44;;;;;;;;;;;14.30;91.60;;;;;;4300169;33;44286;-79
2021/09/28 04:33:11;;;;;;;;;;;14.30;91.60;;;;;;4300458;33;43974;-80
2021/09/28 04:35:38;;;;;;;;;;;14.30;91.60;;;;;;4300006;33;44203;-79
2021/09/28 04:38:06;;;;;;;;;;;14.20;91.50;;;;;;4287925;33;44292;-79
2021/09/28 04:40:33;;;;;;;;;;;14.30;91.50;;;;;;4301256;33;44339;-79
2021/09/28 04:43:00;;;;;;;;;;;14.30;91.50;;;;;;4299748;33;43034;-79
2021/09/28 04:45:27;;;;;;;;;;;14.20;91.50;;;;;;4287968;33;43727;-79
2021/09/28 04:47:54;;;;;;;;;;;14.30;91.50;;;;;;4299763;33;43211;-79
2021/09/28 04:50:21;;;;;;;;;;;14.20;91.50;;;;;;4301039;33;43630;-79
2021/09/28 04:52:51;;;;;;;;;;;14.20;91.50;;;;;;4300255;33;43917;-79
2021/09/28 04:55:18;;;;;;;;;;;14.20;91.50;;;;;;4301265;33;43940;-79
2021/09/28 04:57:45;;;;;;;;;;;14.20;91.50;;;;;;4299882;33;42333;-79
2021/09/28 05:00:12;;;;;;;;;;;14.20;91.50;;;;;;4300785;33;44097;-79
2021/09/28 05:02:39;;;;;;;;;;;14.20;91.50;;;;;;4300602;33;43463;-80
2021/09/28 05:05:07;;;;;;;;;;;14.20;91.50;;;;;;4301285;33;43745;-80
2021/09/28 05:07:34;;;;;;;;;;;14.20;91.50;;;;;;4299688;33;44097;-79
2021/09/28 05:10:02;;;;;;;;;;;14.20;91.50;;;;;;4300107;33;43945;-79
2021/09/28 05:12:31;;;;;;;;;;;14.20;91.50;;;;;;4300613;33;42849;-79
2021/09/28 05:14:58;;;;;;;;;;;14.20;91.50;;;;;;4300841;33;43810;-79
2021/09/28 05:17:25;;;;;;;;;;;14.20;91.40;;;;;;4300816;33;43855;-79
2021/09/28 05:19:52;;;;;;;;;;;14.20;91.50;;;;;;4300979;33;43242;-79
2021/09/28 05:22:22;;;;;;;;;;;14.10;91.40;;;;;;4301266;33;44180;-79
2021/09/28 05:24:49;;;;;;;;;;;14.20;91.50;;;;;;4302084;33;43680;-79
2021/09/28 05:27:16;;;;;;;;;;;14.20;91.50;;;;;;4303384;33;44154;-79
2021/09/28 05:29:45;;;;;;;;;;;14.20;91.50;;;;;;4303499;33;43031;-79
2021/09/28 05:32:12;;;;;;;;;;;14.10;91.50;;;;;;4302401;33;44220;-79
2021/09/28 05:34:39;;;;;;;;;;;14.10;91.50;;;;;;4303239;33;42728;-79
2021/09/28 05:37:07;;;;;;;;;;;14.10;91.50;;;;;;4303732;33;43072;-79
2021/09/28 05:39:34;;;;;;;;;;;14.10;91.60;;;;;;4302065;33;43443;-79
2021/09/28 05:42:01;;;;;;;;;;;14.10;91.60;;;;;;4290790;33;43848;-79
2021/09/28 05:44:30;;;;;;;;;;;14.00;91.60;;;;;;4303694;33;43834;-79
2021/09/28 05:46:57;;;;;;;;;;;14.10;91.60;;;;;;4290477;33;42891;-79
2021/09/28 05:49:24;;;;;;;;;;;14.00;91.60;;;;;;4301994;33;44233;-79
2021/09/28 05:51:53;;;;;;;;;;;14.00;91.60;;;;;;4302922;33;43418;-79
2021/09/28 05:54:21;;;;;;;;;;;14.00;92.00;;;;;;4303114;33;43714;-79
2021/09/28 05:56:49;;;;;;;;;;;14.00;91.60;;;;;;4302090;33;44228;-79
2021/09/28 05:59:16;;;;;;;;;;;14.00;91.70;;;;;;4303189;33;43791;-79
2021/09/28 06:01:44;;;;;;;;;;;14.00;91.70;;;;;;4302683;33;42867;-79
2021/09/28 06:04:11;;;;;;;;;;;14.00;91.70;;;;;;4302227;33;42998;-79
2021/09/28 06:06:38;;;;;;;;;;;14.00;91.70;;;;;;4301629;33;42857;-79
2021/09/28 06:09:05;;;;;;;;;;;14.00;91.70;;;;;;4301698;33;43096;-79
2021/09/28 06:11:33;;;;;;;;;;;13.90;91.70;;;;;;4303063;33;43248;-79
2021/09/28 06:14:00;;;;;;;;;;;14.00;91.70;;;;;;4302160;33;43181;-78
2021/09/28 06:16:27;;;;;;;;;;;13.90;91.70;;;;;;4303219;33;43906;-79
2021/09/28 06:18:54;;;;;;;;;;;13.90;91.70;;;;;;4290083;33;43658;-79
2021/09/28 06:21:21;;;;;;;;;;;13.90;91.80;;;;;;4303141;33;43834;-79
2021/09/28 06:23:48;;;;;;;;;;;13.90;91.80;;;;;;4302683;33;43786;-79
2021/09/28 06:26:15;;;;;;;;;;;13.90;91.80;;;;;;4302858;33;44089;-79
2021/09/28 06:28:42;;;;;;;;;;;13.90;91.80;;;;;;4302826;33;42650;-79
2021/09/28 06:31:09;;;;;;;;;;;13.90;91.80;;;;;;4302755;33;43926;-79
2021/09/28 06:33:37;;;;;;;;;;;13.90;91.80;;;;;;4302447;33;44147;-78
2021/09/28 06:36:04;;;;;;;;;;;13.90;91.80;;;;;;4289231;33;42711;-78
2021/09/28 06:38:31;;;;;;;;;;;13.90;91.90;;;;;;4302714;33;43474;-78
2021/09/28 06:40:58;;;;;;;;;;;13.90;91.90;;;;;;4301809;33;43191;-78
2021/09/28 06:43:25;;;;;;;;;;;13.90;91.90;;;;;;4302672;33;43802;-78
2021/09/28 06:45:52;;;;;;;;;;;13.90;91.90;;;;;;4302248;33;42329;-78
2021/09/28 06:48:19;;;;;;;;;;;13.90;91.90;;;;;;4301643;33;43298;-79
2021/09/28 06:50:47;;;;;;;;;;;13.90;91.90;;;;;;4302301;33;43191;-78
2021/09/28 06:53:14;;;;;;;;;;;13.90;92.00;;;;;;4302122;33;43910;-78
2021/09/28 06:55:41;;;;;;;;;;;13.90;92.00;;;;;;4302332;33;43638;-78
2021/09/28 06:58:08;;;;;;;;;;;13.90;92.00;;;;;;4301150;33;43759;-78
2021/09/28 07:00:36;;;;;;;;;;;13.90;92.00;;;;;;4302568;33;43045;-79
2021/09/28 07:03:04;;;;;;;;;;;13.90;92.00;;;;;;4301967;33;43175;-79
2021/09/28 07:05:34;;;;;;;;;;;13.80;92.00;;;;;;4301971;33;42756;-79
2021/09/28 07:08:01;;;;;;;;;;;13.90;92.10;;;;;;4302501;33;43709;-79
2021/09/28 07:10:28;;;;;;;;;;;13.90;92.10;;;;;;4301139;33;43239;-80
2021/09/28 07:12:55;;;;;;;;;;;13.90;92.20;;;;;;4301956;33;43781;-79
2021/09/28 07:15:22;;;;;;;;;;;13.90;92.20;;;;;;4302271;33;43843;-79
2021/09/28 07:17:50;;;;;;;;;;;13.80;92.20;;;;;;4300706;33;44286;-79
2021/09/28 07:20:17;;;;;;;;;;;13.90;92.20;;;;;;4301844;33;44267;-79
2021/09/28 07:22:44;;;;;;;;;;;13.80;92.20;;;;;;4289364;33;43193;-79
2021/09/28 07:25:11;;;;;;;;;;;13.80;92.20;;;;;;4301153;33;43342;-79
2021/09/28 07:27:57;;;;;;;;;;;13.90;92.20;;;;;;4301776;33;42748;-79
2021/09/28 07:30:25;;;;;;;;;;;13.90;92.30;;;;;;4301778;33;42854;-78
2021/09/28 07:32:53;;;;;;;;;;;13.90;92.30;;;;;;4301632;33;43542;-79
2021/09/28 07:35:23;;;;;;;;;;;13.90;92.30;;;;;;4300504;33;44188;-79
2021/09/28 07:37:50;;;;;;;;;;;13.90;92.30;;;;;;4301142;33;43039;-79
2021/09/28 07:40:18;;;;;;;;;;;13.90;92.30;;;;;;4301567;33;43358;-79
2021/09/28 07:42:48;;;;;;;;;;;13.90;92.30;;;;;;4300745;33;45804;-79
2021/09/28 07:45:15;;;;;;;;;;;13.90;92.40;;;;;;4300384;33;44188;-79
2021/09/28 07:47:42;;;;;;;;;;;13.90;92.40;;;;;;4301108;33;43654;-79
2021/09/28 07:50:10;;;;;;;;;;;13.90;92.40;;;;;;4301536;33;42607;-79
2021/09/28 07:52:37;;;;;;;;;;;13.90;92.40;;;;;;4300229;33;44020;-78
2021/09/28 07:55:04;;;;;;;;;;;13.90;92.40;;;;;;4300671;33;43403;-78
2021/09/28 07:57:31;;;;;;;;;;;14.00;92.40;;;;;;4301637;33;43695;-79
2021/09/28 07:59:58;;;;;;;;;;;13.90;92.40;;;;;;4301400;33;43200;-78
2021/09/28 08:02:26;;;;;;;;;;;14.00;92.40;;;;;;4301084;33;44224;-78
2021/09/28 08:04:54;;;;;;;;;;;14.00;92.40;;;;;;4300746;33;43471;-78
2021/09/28 08:07:21;;;;;;;;;;;14.00;92.40;;;;;;4301322;33;43218;-78
2021/09/28 08:09:48;;;;;;;;;;;14.00;92.40;;;;;;4288213;33;44220;-78
2021/09/28 08:12:15;;;;;;;;;;;14.00;92.40;;;;;;4301256;33;44769;-78
2021/09/28 08:14:42;;;;;;;;;;;14.00;92.40;;;;;;4300146;33;43257;-78
2021/09/28 08:17:09;;;;;;;;;;;14.10;92.50;;;;;;4288315;33;43776;-78
2021/09/28 08:19:39;;;;;;;;;;;14.10;92.50;;;;;;4301095;33;42894;-78
2021/09/28 08:22:10;;;;;;;;;;;14.10;92.50;;;;;;4301094;33;42859;-78
2021/09/28 08:24:41;;;;;;;;;;;14.10;92.50;;;;;;4301517;33;44129;-78
2021/09/28 08:29:59;;;;;;;;;;;14.20;92.50;;;;;;4301308;33;42786;-78
2021/09/28 08:32:27;;;;;;;;;;;14.20;92.50;;;;;;4300880;33;43062;-78
2021/09/28 08:34:58;;;;;;;;;;;14.20;92.50;;;;;;4301363;33;43494;-78
2021/09/28 08:37:28;;;;;;;;;;;14.20;92.50;;;;;;4300692;33;43698;-78
2021/09/28 08:39:55;;;;;;;;;;;14.30;92.50;;;;;;4300997;33;45086;-78
2021/09/28 08:42:23;;;;;;;;;;;14.30;92.50;;;;;;4301865;33;20042;-78
2021/09/28 08:44:52;;;;;;;;;;;14.30;92.50;;;;;;4301231;33;42527;-78
2021/09/28 08:47:39;;;;;;;;;;;14.40;92.50;;;;;;4288008;33;43322;-78
2021/09/28 08:50:08;;;;;;;;;;;14.30;92.40;;;;;;4300401;33;43918;-78
2021/09/28 08:52:41;;;;;;;;;;;14.30;92.40;;;;;;4287907;33;44517;-78
2021/09/28 08:55:19;;;;;;;;;;;14.40;92.50;;;;;;4300424;33;43483;-78
2021/09/28 08:57:46;;;;;;;;;;;14.40;92.50;;;;;;4300990;33;44213;-78
2021/09/28 09:00:13;;;;;;;;;;;14.40;92.50;;;;;;4303090;33;43275;-78
2021/09/28 09:02:41;;;;;;;;;;;14.50;92.50;;;;;;4302481;33;42714;-78
2021/09/28 09:05:14;;;;;;;;;;;14.40;92.50;;;;;;4303737;33;42722;-77
2021/09/28 09:07:41;;;;;;;;;;;14.50;92.50;;;;;;4291146;33;45632;-78
2021/09/28 09:10:11;;;;;;;;;;;14.50;92.50;;;;;;4303599;33;42910;-77
2021/09/28 09:12:40;;;;;;;;;;;14.50;92.50;;;;;;4303206;33;20021;-78
2021/09/28 09:15:17;;;;;;;;;;;14.50;92.50;;;;;;4302475;33;42886;-78
2021/09/28 09:17:48;;;;;;;;;;;14.60;92.50;;;;;;4303016;33;46005;-78
2021/09/28 09:20:27;;;;;;;;;;;14.60;92.50;;;;;;4302907;33;43768;-77
2021/09/28 09:22:55;;;;;;;;;;;14.60;92.50;;;;;;4302657;33;43869;-78
2021/09/28 09:25:23;;;;;;;;;;;14.60;92.50;;;;;;4303547;33;43142;-78
2021/09/28 09:27:52;;;;;;;;;;;14.60;92.50;;;;;;4302427;33;43989;-77
2021/09/28 09:30:20;;;;;;;;;;;14.70;92.50;;;;;;4304064;33;43152;-77
2021/09/28 09:32:59;;;;;;;;;;;14.70;92.50;;;;;;4303481;33;42711;-78
2021/09/28 09:35:26;;;;;;;;;;;14.70;92.50;;;;;;4302790;33;43902;-78
2021/09/28 09:38:07;;;;;;;;;;;14.70;92.50;;;;;;4302173;33;42700;-77
2021/09/28 09:40:39;;;;;;;;;;;14.80;92.50;;;;;;4303849;33;43085;-78
2021/09/28 09:43:07;;;;;;;;;;;14.80;92.50;;;;;;4303256;33;20038;-78
2021/09/28 09:45:34;;;;;;;;;;;14.80;92.50;;;;;;4302976;33;45633;-78
2021/09/28 09:48:20;;;;;;;;;;;14.80;92.50;;;;;;4303034;33;43855;-77
2021/09/28 09:50:54;;;;;;;;;;;14.80;92.40;;;;;;4302727;33;44176;-78
2021/09/28 09:53:22;;;;;;;;;;;14.90;92.50;;;;;;4303585;33;43038;-78
2021/09/28 09:55:49;;;;;;;;;;;14.80;92.40;;;;;;4302949;33;43497;-78
2021/09/28 09:58:17;;;;;;;;;;;14.90;92.50;;;;;;4302381;33;42728;-78
2021/09/28 10:00:44;;;;;;;;;;;14.90;92.50;;;;;;4303600;33;43104;-78
2021/09/28 10:03:11;;;;;;;;;;;14.90;92.50;;;;;;4302697;33;44230;-77
2021/09/28 10:05:39;;;;;;;;;;;15.00;92.50;;;;;;4303424;33;44256;-78
2021/09/28 10:08:09;;;;;;;;;;;15.00;92.40;;;;;;4303351;33;43542;-77
2021/09/28 10:10:36;;;;;;;;;;;15.00;92.40;;;;;;4302713;33;42739;-77
2021/09/28 10:13:04;;;;;;;;;;;15.00;92.40;;;;;;4290095;33;43603;-78
2021/09/28 10:15:31;;;;;;;;;;;15.00;92.40;;;;;;4303193;33;43091;-76
2021/09/28 10:17:58;;;;;;;;;;;15.10;92.40;;;;;;4301883;33;42535;-77
2021/09/28 10:20:30;;;;;;;;;;;15.10;92.30;;;;;;4301857;33;42859;-78
2021/09/28 10:23:21;;;;;;;;;;;15.10;92.30;;;;;;4303087;33;43431;-77
2021/09/28 10:25:48;;;;;;;;;;;15.10;92.30;;;;;;4303057;33;43110;-78
2021/09/28 10:28:15;;;;;;;;;;;15.20;92.20;;;;;;4302566;33;43882;-77
2021/09/28 10:30:43;;;;;;;;;;;15.20;92.20;;;;;;4289658;33;43966;-77
2021/09/28 10:33:22;;;;;;;;;;;15.20;92.10;;;;;;4302523;33;44317;-77
2021/09/28 10:36:18;;;;;;;;;;;15.20;92.20;;;;;;4302712;33;44217;-77
2021/09/28 10:38:45;;;;;;;;;;;15.20;92.10;;;;;;4302028;33;43942;-77
2021/09/28 10:41:31;;;;;;;;;;;15.30;92.10;;;;;;4301602;33;44000;-78
2021/09/28 10:44:17;;;;;;;;;;;15.30;92.10;;;;;;4301734;33;43612;-78
2021/09/28 10:46:44;;;;;;;;;;;15.30;92.10;;;;;;4302756;33;43687;-77
2021/09/28 10:49:22;;;;;;;;;;;15.30;92.00;;;;;;4289479;33;43482;-78
2021/09/28 10:51:49;;;;;;;;;;;15.40;91.90;;;;;;4301380;33;43816;-77
2021/09/28 10:54:16;;;;;;;;;;;15.40;91.90;;;;;;4301066;33;44010;-78
2021/09/28 10:56:52;;;;;;;;;;;15.30;91.90;;;;;;4302506;33;44434;-77
2021/09/28 10:59:19;;;;;;;;;;;15.40;91.80;;;;;;4302085;33;42746;-77
2021/09/28 11:02:05;;;;;;;;;;;15.40;91.80;;;;;;4300707;33;44518;-78
2021/09/28 11:04:32;;;;;;;;;;;15.40;91.80;;;;;;4301176;33;45517;-77
2021/09/28 11:07:07;;;;;;;;;;;15.40;91.80;;;;;;4302070;33;43584;-78
2021/09/28 11:09:46;;;;;;;;;;;15.50;91.80;;;;;;4302564;33;43505;-77
2021/09/28 11:12:13;;;;;;;;;;;15.50;91.60;;;;;;4302768;33;44259;-77
2021/09/28 11:14:43;;;;;;;;;;;15.50;91.70;;;;;;4288799;33;44195;-78
2021/09/28 11:17:11;;;;;;;;;;;15.60;91.70;;;;;;4303405;33;20408;-78
2021/09/28 11:19:39;;;;;;;;;;;15.60;91.70;;;;;;4301157;33;44148;-78
2021/09/28 11:22:07;;;;;;;;;;;15.60;91.60;;;;;;4301532;33;42703;-77
2021/09/28 11:24:34;;;;;;;;;;;15.60;91.60;;;;;;4300753;33;42738;-77
2021/09/28 11:27:09;;;;;;;;;;;15.70;91.50;;;;;;4300761;33;42634;-78
2021/09/28 11:29:37;;;;;;;;;;;15.70;91.50;;;;;;4301190;33;43937;-78
2021/09/28 11:32:05;;;;;;;;;;;15.70;91.40;;;;;;4300923;33;45638;-78
2021/09/28 11:34:34;;;;;;;;;;;15.80;91.30;;;;;;4300474;33;43323;-77
2021/09/28 11:37:17;;;;;;;;;;;15.80;91.40;;;;;;4302097;33;43666;-78
2021/09/28 11:39:45;;;;;;;;;;;15.80;91.40;;;;;;4301654;33;42243;-77
2021/09/28 11:42:13;;;;;;;;;;;15.80;91.30;;;;;;4301545;33;46056;-78
2021/09/28 11:44:43;;;;;;;;;;;15.80;91.30;;;;;;4300846;33;45413;-77
2021/09/28 11:47:12;;;;;;;;;;;15.80;91.30;;;;;;4302570;33;20014;-78
2021/09/28 11:49:50;;;;;;;;;;;15.80;91.30;;;;;;4300328;33;43483;-78
2021/09/28 11:52:17;;;;;;;;;;;15.90;91.30;;;;;;4300471;33;43294;-78
2021/09/28 11:54:46;;;;;;;;;;;15.90;91.30;;;;;;4300774;33;45932;-77
2021/09/28 11:57:13;;;;;;;;;;;15.90;91.10;;;;;;4301544;33;43488;-77
2021/09/28 11:59:41;;;;;;;;;;;15.90;91.20;;;;;;4288599;33;45534;-78
2021/09/28 12:02:08;;;;;;;;;;;15.90;91.20;;;;;;4300354;33;43271;-78
2021/09/28 12:05:13;;;;;;;;;;;15.90;91.20;;;;;;4300206;33;42753;-78
2021/09/28 12:10:19;;;;;;;;;;;15.90;90.90;;;;;;4301724;33;44192;-78
2021/09/28 12:12:46;;;;;;;;;;;15.90;90.90;;;;;;4300738;33;44187;-78
2021/09/28 12:15:14;;;;;;;;;;;16.00;90.90;;;;;;4300542;33;43907;-78
2021/09/28 12:17:42;;;;;;;;;;;16.00;90.90;;;;;;4301349;33;20096;-78
2021/09/28 12:20:11;;;;;;;;;;;16.00;90.80;;;;;;4300557;33;44246;-78
2021/09/28 12:22:42;;;;;;;;;;;16.00;90.90;;;;;;4300487;33;43853;-78
2021/09/28 12:25:13;;;;;;;;;;;16.10;90.80;;;;;;4301565;33;44196;-78
2021/09/28 12:27:55;;;;;;;;;;;16.10;90.80;;;;;;4300626;33;43589;-78
2021/09/28 12:30:24;;;;;;;;;;;16.10;90.60;;;;;;4301499;33;45017;-78
2021/09/28 12:32:51;;;;;;;;;;;16.10;90.70;;;;;;4300762;33;43363;-78
2021/09/28 12:35:24;;;;;;;;;;;16.10;90.70;;;;;;4301194;33;44344;-79
2021/09/28 12:37:56;;;;;;;;;;;16.20;90.80;;;;;;4301427;33;43473;-78
2021/09/28 12:40:25;;;;;;;;;;;16.20;90.60;;;;;;4301267;33;43852;-78
2021/09/28 12:43:00;;;;;;;;;;;16.20;90.70;;;;;;4301155;33;44103;-78
2021/09/28 12:45:27;;;;;;;;;;;16.20;90.70;;;;;;4300018;33;43571;-78
2021/09/28 12:47:56;;;;;;;;;;;16.30;90.70;;;;;;4302238;33;20002;-79
2021/09/28 12:50:27;;;;;;;;;;;16.30;90.70;;;;;;4300970;33;45111;-78
2021/09/28 12:53:04;;;;;;;;;;;16.30;90.70;;;;;;4301043;33;42463;-78
2021/09/28 12:55:37;;;;;;;;;;;16.30;90.60;;;;;;4300160;33;44340;-78
2021/09/28 12:58:08;;;;;;;;;;;16.40;90.50;;;;;;4299750;33;43344;-78
2021/09/28 13:00:35;;;;;;;;;;;16.40;90.60;;;;;;4300134;33;43002;-79
2021/09/28 13:03:06;;;;;;;;;;;16.50;90.70;;;;;;4299597;33;42860;-79
2021/09/28 13:05:35;;;;;;;;;;;16.50;90.70;;;;;;4300126;33;43959;-78
2021/09/28 13:08:05;;;;;;;;;;;16.40;90.70;;;;;;4299699;33;44211;-78
2021/09/28 13:10:32;;;;;;;;;;;16.50;90.70;;;;;;4301080;33;43260;-78
2021/09/28 13:12:59;;;;;;;;;;;16.50;90.60;;;;;;4299841;33;44545;-79
2021/09/28 13:15:26;;;;;;;;;;;16.50;90.60;;;;;;4300777;33;42686;-79
2021/09/28 13:17:53;;;;;;;;;;;16.50;90.50;;;;;;4299718;33;44214;-78
2021/09/28 13:20:22;;;;;;;;;;;16.50;90.50;;;;;;4301919;33;20038;-79
2021/09/28 13:22:49;;;;;;;;;;;16.60;90.50;;;;;;4287632;33;43063;-78
2021/09/28 13:25:16;;;;;;;;;;;16.60;90.40;;;;;;4301070;33;43352;-79
2021/09/28 13:27:44;;;;;;;;;;;16.60;90.50;;;;;;4288106;33;43958;-79
2021/09/28 13:30:12;;;;;;;;;;;16.60;90.40;;;;;;4301001;33;44336;-79
2021/09/28 13:32:39;;;;;;;;;;;16.60;90.20;;;;;;4299986;33;43393;-78
2021/09/28 13:35:07;;;;;;;;;;;16.60;90.30;;;;;;4299931;33;43814;-78
2021/09/28 13:37:34;;;;;;;;;;;16.60;90.40;;;;;;4301009;33;44904;-78
2021/09/28 13:40:02;;;;;;;;;;;16.70;90.40;;;;;;4299529;33;43025;-78
2021/09/28 13:42:29;;;;;;;;;;;16.70;90.00;;;;;;4299971;33;43078;-78
2021/09/28 13:44:56;;;;;;;;;;;16.70;90.20;;;;;;4300040;33;43638;-77
2021/09/28 13:47:24;;;;;;;;;;;16.70;90.30;;;;;;4302564;33;44184;-78
2021/09/28 13:49:51;;;;;;;;;;;16.70;90.30;;;;;;4303291;33;42865;-78
2021/09/28 13:52:18;;;;;;;;;;;16.70;90.30;;;;;;4302507;33;44283;-79
2021/09/28 13:54:45;;;;;;;;;;;16.70;90.20;;;;;;4302172;33;43193;-78
2021/09/28 13:57:12;;;;;;;;;;;16.70;90.00;;;;;;4290630;33;43254;-79
2021/09/28 13:59:40;;;;;;;;;;;16.80;90.10;;;;;;4303584;33;44106;-78
2021/09/28 14:02:08;;;;;;;;;;;16.80;90.20;;;;;;4302892;33;43355;-78
2021/09/28 14:04:35;;;;;;;;;;;16.80;90.10;;;;;;4302248;33;44219;-78
2021/09/28 14:07:02;;;;;;;;;;;16.80;90.00;;;;;;4302212;33;44185;-78
2021/09/28 14:09:32;;;;;;;;;;;16.90;90.20;;;;;;4302791;33;43829;-78
2021/09/28 14:11:59;;;;;;;;;;;16.90;90.00;;;;;;4302103;33;44664;-79
2021/09/28 14:14:29;;;;;;;;;;;16.90;90.10;;;;;;4302779;33;43519;-78
2021/09/28 14:16:56;;;;;;;;;;;17.00;89.90;;;;;;4302705;33;42529;-78
2021/09/28 14:19:23;;;;;;;;;;;17.00;90.10;;;;;;4302640;33;42917;-78
2021/09/28 14:21:53;;;;;;;;;;;17.00;90.30;;;;;;4301982;33;43177;-78
2021/09/28 14:24:20;;;;;;;;;;;17.10;90.10;;;;;;4302127;33;44852;-79
2021/09/28 14:26:47;;;;;;;;;;;17.10;90.00;;;;;;4302146;33;45421;-79
2021/09/28 14:29:14;;;;;;;;;;;17.10;90.00;;;;;;4302722;33;43840;-78
2021/09/28 14:31:42;;;;;;;;;;;17.10;90.00;;;;;;4301418;33;45022;-78